Página principal
METAR-TAF:

METAR-TAF

Aeroportos :

Terceira, Açores, Portugal

Base Aérea das Lajes

latitude: 38-46N, longitude: 027-06W, altura: 52 m

Observação actual do tempo

O boletim foi feito há 53 minutos, às 19:00 UTC
Temperatura 15°C
Humidade 67%
Pressão 1017 hPa
Visibilidade 10 km ou mais
Nuvens dispersasa uma altura de 2500 ft

METAR: LPLA 141900Z /////KT 9999 SCT025 15/09 Q1017

Hora: 18:53 (19:53 UTC)

Previsão

O boletim foi feito há 2 horas e 46 minutos, às 17:07 UTC
Previsão válida de 14 às 18 UTC a 15 às 18 UTC
Vento 12 kt de noroeste
Visibilidade 10 km ou mais
Nuvens dispersasa uma altura de 2500 ft
Tornando-se
de 15 às 04 UTC a 15 às 06 UTC
Vento 8 kt de sudoeste
Tornando-se
de 15 às 09 UTC a 15 às 11 UTC
Vento 15 kt de sudoeste
Temporariamente
de 15 às 10 UTC a 15 às 18 UTC
Vento 22 kt de oes-sudoeste com rajadas de 35 kt

TAF: LPLA 141707Z 1418/1518 32012KT 9999 SCT025 BECMG 1504/1506 23008KT BECMG 1509/1511 23015KT TEMPO 1510/1518 24022G35KT

Observações e previsões do tempo de mais de 4000 aeroportos (mensagens METAR e TAF).

As estações disponíveis são os pontos amarelos e vermelhos sobre o mapa.

Mova o rato sobre o mapa para ver o nome da estação.

Depois clique no ponto para visualizar as observações e previsões meteorológicas.

Para alterar o mapa : clique nos botões verdes com uma cruz preta para aumentar o zoom; no botão verde com uma pitada de zoom; ou nas setas verdes para mapas adjacentes.


METAR-TAF: